sensor_id;sensor_type;location;lat;lon;timestamp;temperature;humidity
75457;SHT31;64036;48.266;14.192;2023-12-04T00:00:45;-7.37;76.70
75457;SHT31;64036;48.266;14.192;2023-12-04T00:10:44;-7.26;76.53
75457;SHT31;64036;48.266;14.192;2023-12-04T00:13:42;-7.26;76.48
75457;SHT31;64036;48.266;14.192;2023-12-04T00:16:57;-7.29;76.35
75457;SHT31;64036;48.266;14.192;2023-12-04T00:33:38;-7.32;76.53
75457;SHT31;64036;48.266;14.192;2023-12-04T00:40:02;-7.38;76.11
75457;SHT31;64036;48.266;14.192;2023-12-04T00:46:48;-7.60;75.81
75457;SHT31;64036;48.266;14.192;2023-12-04T00:49:52;-7.71;76.14
75457;SHT31;64036;48.266;14.192;2023-12-04T00:52:47;-7.74;76.13
75457;SHT31;64036;48.266;14.192;2023-12-04T00:55:54;-7.81;76.14
75457;SHT31;64036;48.266;14.192;2023-12-04T01:02:33;-8.00;76.20
75457;SHT31;64036;48.266;14.192;2023-12-04T01:08:39;-8.10;75.85
75457;SHT31;64036;48.266;14.192;2023-12-04T01:15:02;-8.17;76.15
75457;SHT31;64036;48.266;14.192;2023-12-04T01:17:51;-8.20;76.10
75457;SHT31;64036;48.266;14.192;2023-12-04T01:48:56;-8.33;74.78
75457;SHT31;64036;48.266;14.192;2023-12-04T01:58:22;-8.71;76.08
75457;SHT31;64036;48.266;14.192;2023-12-04T02:01:50;-8.61;76.42
75457;SHT31;64036;48.266;14.192;2023-12-04T02:08:56;-8.49;76.56
75457;SHT31;64036;48.266;14.192;2023-12-04T02:11:56;-8.45;76.77
75457;SHT31;64036;48.266;14.192;2023-12-04T02:15:01;-8.64;75.94
75457;SHT31;64036;48.266;14.192;2023-12-04T02:17:45;-8.89;76.08
75457;SHT31;64036;48.266;14.192;2023-12-04T02:20:49;-9.03;76.48
75457;SHT31;64036;48.266;14.192;2023-12-04T02:23:58;-9.11;76.61
75457;SHT31;64036;48.266;14.192;2023-12-04T02:27:03;-9.14;76.71
75457;SHT31;64036;48.266;14.192;2023-12-04T02:30:25;-9.13;76.70
75457;SHT31;64036;48.266;14.192;2023-12-04T02:33:50;-9.25;76.56
75457;SHT31;64036;48.266;14.192;2023-12-04T02:41:03;-9.24;76.78
75457;SHT31;64036;48.266;14.192;2023-12-04T02:55:36;-9.25;76.33
75457;SHT31;64036;48.266;14.192;2023-12-04T02:58:58;-9.17;76.46
75457;SHT31;64036;48.266;14.192;2023-12-04T03:05:39;-9.05;76.10
75457;SHT31;64036;48.266;14.192;2023-12-04T03:09:06;-9.03;75.98
75457;SHT31;64036;48.266;14.192;2023-12-04T03:15:11;-9.11;75.94
75457;SHT31;64036;48.266;14.192;2023-12-04T03:18:11;-9.10;76.40
75457;SHT31;64036;48.266;14.192;2023-12-04T03:20:59;-9.09;76.40
75457;SHT31;64036;48.266;14.192;2023-12-04T03:27:51;-9.07;76.30
75457;SHT31;64036;48.266;14.192;2023-12-04T03:37:38;-9.24;76.19
75457;SHT31;64036;48.266;14.192;2023-12-04T03:40:55;-9.26;76.00
75457;SHT31;64036;48.266;14.192;2023-12-04T03:43:50;-9.28;75.91
75457;SHT31;64036;48.266;14.192;2023-12-04T04:15:04;-9.62;75.94
75457;SHT31;64036;48.266;14.192;2023-12-04T04:25:10;-9.91;76.05
75457;SHT31;64036;48.266;14.192;2023-12-04T04:32:14;-9.95;76.42
75457;SHT31;64036;48.266;14.192;2023-12-04T04:39:19;-9.75;76.44
75457;SHT31;64036;48.266;14.192;2023-12-04T04:43:09;-9.70;76.20
75457;SHT31;64036;48.266;14.192;2023-12-04T05:01:25;-9.80;76.30
75457;SHT31;64036;48.266;14.192;2023-12-04T05:04:16;-9.93;76.39
75457;SHT31;64036;48.266;14.192;2023-12-04T05:06:57;-10.06;76.38
75457;SHT31;64036;48.266;14.192;2023-12-04T05:09:49;-10.05;76.72
75457;SHT31;64036;48.266;14.192;2023-12-04T05:12:30;-9.97;76.86
75457;SHT31;64036;48.266;14.192;2023-12-04T05:15:14;-9.90;76.70
75457;SHT31;64036;48.266;14.192;2023-12-04T05:17:51;-9.86;76.57
75457;SHT31;64036;48.266;14.192;2023-12-04T05:20:18;-9.85;76.35
75457;SHT31;64036;48.266;14.192;2023-12-04T05:22:44;-9.84;76.24
75457;SHT31;64036;48.266;14.192;2023-12-04T05:25:10;-9.89;75.97
75457;SHT31;64036;48.266;14.192;2023-12-04T05:27:35;-9.93;75.72
75457;SHT31;64036;48.266;14.192;2023-12-04T05:30:09;-10.03;75.49
75457;SHT31;64036;48.266;14.192;2023-12-04T05:32:50;-10.13;75.46
75457;SHT31;64036;48.266;14.192;2023-12-04T05:35:22;-10.18;75.56
75457;SHT31;64036;48.266;14.192;2023-12-04T05:38:04;-10.28;75.34
75457;SHT31;64036;48.266;14.192;2023-12-04T05:41:05;-10.39;75.52
75457;SHT31;64036;48.266;14.192;2023-12-04T05:44:08;-10.42;75.80
75457;SHT31;64036;48.266;14.192;2023-12-04T05:50:10;-10.35;76.00
75457;SHT31;64036;48.266;14.192;2023-12-04T05:53:12;-10.38;75.74
75457;SHT31;64036;48.266;14.192;2023-12-04T05:55:44;-10.37;75.78
75457;SHT31;64036;48.266;14.192;2023-12-04T06:06:14;-10.28;75.77
75457;SHT31;64036;48.266;14.192;2023-12-04T06:09:21;-10.28;75.65
75457;SHT31;64036;48.266;14.192;2023-12-04T06:12:12;-10.31;75.48
75457;SHT31;64036;48.266;14.192;2023-12-04T06:14:43;-10.35;75.35
75457;SHT31;64036;48.266;14.192;2023-12-04T06:17:31;-10.41;75.33
75457;SHT31;64036;48.266;14.192;2023-12-04T06:20:23;-10.48;75.08
75457;SHT31;64036;48.266;14.192;2023-12-04T06:23:05;-10.67;74.44
75457;SHT31;64036;48.266;14.192;2023-12-04T06:25:48;-10.77;74.67
75457;SHT31;64036;48.266;14.192;2023-12-04T06:28:35;-10.73;75.34
75457;SHT31;64036;48.266;14.192;2023-12-04T06:31:40;-10.65;75.70
75457;SHT31;64036;48.266;14.192;2023-12-04T06:34:09;-10.57;75.76
75457;SHT31;64036;48.266;14.192;2023-12-04T06:36:53;-10.46;75.80
75457;SHT31;64036;48.266;14.192;2023-12-04T06:39:25;-10.37;75.71
75457;SHT31;64036;48.266;14.192;2023-12-04T06:42:10;-10.38;75.51
75457;SHT31;64036;48.266;14.192;2023-12-04T06:44:36;-10.47;74.78
75457;SHT31;64036;48.266;14.192;2023-12-04T06:47:08;-10.51;74.51
75457;SHT31;64036;48.266;14.192;2023-12-04T06:49:38;-10.26;75.41
75457;SHT31;64036;48.266;14.192;2023-12-04T06:52:10;-9.85;75.72
75457;SHT31;64036;48.266;14.192;2023-12-04T06:54:43;-9.29;75.74
75457;SHT31;64036;48.266;14.192;2023-12-04T06:57:09;-8.69;75.29
75457;SHT31;64036;48.266;14.192;2023-12-04T07:03:02;-7.18;74.07
75457;SHT31;64036;48.266;14.192;2023-12-04T07:05:33;-6.72;72.73
75457;SHT31;64036;48.266;14.192;2023-12-04T07:07:59;-6.36;71.67
75457;SHT31;64036;48.266;14.192;2023-12-04T07:10:25;-5.86;71.33
75457;SHT31;64036;48.266;14.192;2023-12-04T07:12:51;-5.35;70.54
75457;SHT31;64036;48.266;14.192;2023-12-04T07:15:17;-4.74;69.72
75457;SHT31;64036;48.266;14.192;2023-12-04T07:17:43;-4.36;67.90
75457;SHT31;64036;48.266;14.192;2023-12-04T07:20:08;-4.07;66.76
75457;SHT31;64036;48.266;14.192;2023-12-04T07:22:38;-3.98;65.42
75457;SHT31;64036;48.266;14.192;2023-12-04T07:25:04;-4.05;66.14
75457;SHT31;64036;48.266;14.192;2023-12-04T07:27:37;-4.26;66.10
75457;SHT31;64036;48.266;14.192;2023-12-04T07:30:07;-4.48;66.10
75457;SHT31;64036;48.266;14.192;2023-12-04T07:32:33;-4.14;66.36
75457;SHT31;64036;48.266;14.192;2023-12-04T07:35:00;-3.46;66.40
75457;SHT31;64036;48.266;14.192;2023-12-04T07:37:26;-2.98;65.12
75457;SHT31;64036;48.266;14.192;2023-12-04T07:39:51;-2.82;64.01
75457;SHT31;64036;48.266;14.192;2023-12-04T07:42:17;-2.64;63.57
75457;SHT31;64036;48.266;14.192;2023-12-04T07:44:46;-2.45;63.85
75457;SHT31;64036;48.266;14.192;2023-12-04T07:47:17;-2.38;63.47
75457;SHT31;64036;48.266;14.192;2023-12-04T07:49:44;-2.40;62.87
75457;SHT31;64036;48.266;14.192;2023-12-04T07:52:10;-2.35;62.85
75457;SHT31;64036;48.266;14.192;2023-12-04T07:54:39;-2.33;62.88
75457;SHT31;64036;48.266;14.192;2023-12-04T07:57:04;-2.29;62.53
75457;SHT31;64036;48.266;14.192;2023-12-04T07:59:30;-1.85;62.33
75457;SHT31;64036;48.266;14.192;2023-12-04T08:01:56;-1.41;61.76
75457;SHT31;64036;48.266;14.192;2023-12-04T08:04:21;-1.24;60.81
75457;SHT31;64036;48.266;14.192;2023-12-04T08:06:47;-0.96;60.89
75457;SHT31;64036;48.266;14.192;2023-12-04T08:09:13;-0.64;59.87
75457;SHT31;64036;48.266;14.192;2023-12-04T08:11:38;-0.21;59.27
75457;SHT31;64036;48.266;14.192;2023-12-04T08:14:05;0.31;58.16
75457;SHT31;64036;48.266;14.192;2023-12-04T08:16:31;0.57;57.23
75457;SHT31;64036;48.266;14.192;2023-12-04T08:18:56;0.94;57.08
75457;SHT31;64036;48.266;14.192;2023-12-04T08:21:22;1.47;56.49
75457;SHT31;64036;48.266;14.192;2023-12-04T08:23:48;1.99;55.43
75457;SHT31;64036;48.266;14.192;2023-12-04T08:26:14;2.41;54.23
75457;SHT31;64036;48.266;14.192;2023-12-04T08:28:50;2.79;53.07
75457;SHT31;64036;48.266;14.192;2023-12-04T08:31:16;2.94;51.67
75457;SHT31;64036;48.266;14.192;2023-12-04T08:33:42;2.98;50.80
75457;SHT31;64036;48.266;14.192;2023-12-04T08:36:09;3.00;50.54
75457;SHT31;64036;48.266;14.192;2023-12-04T08:38:36;3.08;50.57
75457;SHT31;64036;48.266;14.192;2023-12-04T08:41:03;3.16;50.64
75457;SHT31;64036;48.266;14.192;2023-12-04T08:43:29;3.22;50.28
75457;SHT31;64036;48.266;14.192;2023-12-04T08:45:55;3.26;49.96
75457;SHT31;64036;48.266;14.192;2023-12-04T08:48:21;3.10;48.76
75457;SHT31;64036;48.266;14.192;2023-12-04T08:50:47;2.48;47.20
75457;SHT31;64036;48.266;14.192;2023-12-04T08:53:13;1.75;47.74
75457;SHT31;64036;48.266;14.192;2023-12-04T08:55:39;1.30;48.46
75457;SHT31;64036;48.266;14.192;2023-12-04T08:58:05;1.10;49.52
75457;SHT31;64036;48.266;14.192;2023-12-04T09:00:31;1.16;49.73
75457;SHT31;64036;48.266;14.192;2023-12-04T09:02:58;1.50;50.77
75457;SHT31;64036;48.266;14.192;2023-12-04T09:05:24;1.89;50.86
75457;SHT31;64036;48.266;14.192;2023-12-04T09:07:49;2.15;51.14
75457;SHT31;64036;48.266;14.192;2023-12-04T09:10:15;1.93;50.02
75457;SHT31;64036;48.266;14.192;2023-12-04T09:12:42;1.60;50.77
75457;SHT31;64036;48.266;14.192;2023-12-04T09:15:07;1.62;51.43
75457;SHT31;64036;48.266;14.192;2023-12-04T09:17:33;1.93;52.07
75457;SHT31;64036;48.266;14.192;2023-12-04T09:19:59;2.34;51.65
75457;SHT31;64036;48.266;14.192;2023-12-04T09:22:25;2.65;51.18
75457;SHT31;64036;48.266;14.192;2023-12-04T09:24:50;2.72;50.98
75457;SHT31;64036;48.266;14.192;2023-12-04T09:27:16;2.94;50.91
75457;SHT31;64036;48.266;14.192;2023-12-04T09:29:42;2.99;50.50
75457;SHT31;64036;48.266;14.192;2023-12-04T09:32:08;2.94;50.21
75457;SHT31;64036;48.266;14.192;2023-12-04T09:34:35;3.03;50.67
75457;SHT31;64036;48.266;14.192;2023-12-04T09:37:01;3.14;50.62
75457;SHT31;64036;48.266;14.192;2023-12-04T09:39:27;3.13;50.27
75457;SHT31;64036;48.266;14.192;2023-12-04T09:41:53;3.05;50.78
75457;SHT31;64036;48.266;14.192;2023-12-04T09:44:21;3.17;51.08
75457;SHT31;64036;48.266;14.192;2023-12-04T09:46:49;3.31;50.91
75457;SHT31;64036;48.266;14.192;2023-12-04T09:49:17;3.44;50.41
75457;SHT31;64036;48.266;14.192;2023-12-04T09:51:43;3.43;50.32
75457;SHT31;64036;48.266;14.192;2023-12-04T09:54:10;3.41;50.39
75457;SHT31;64036;48.266;14.192;2023-12-04T09:56:37;3.54;50.45
75457;SHT31;64036;48.266;14.192;2023-12-04T09:59:04;3.33;50.10
75457;SHT31;64036;48.266;14.192;2023-12-04T10:01:31;3.17;50.74
75457;SHT31;64036;48.266;14.192;2023-12-04T10:04:01;3.05;51.07
75457;SHT31;64036;48.266;14.192;2023-12-04T10:06:30;2.96;51.24
75457;SHT31;64036;48.266;14.192;2023-12-04T10:08:56;2.87;51.54
75457;SHT31;64036;48.266;14.192;2023-12-04T10:11:26;2.74;51.78
75457;SHT31;64036;48.266;14.192;2023-12-04T10:13:52;2.59;51.97
75457;SHT31;64036;48.266;14.192;2023-12-04T10:16:36;2.35;52.14
75457;SHT31;64036;48.266;14.192;2023-12-04T10:21:55;1.97;53.13
75457;SHT31;64036;48.266;14.192;2023-12-04T10:24:34;1.71;53.88
75457;SHT31;64036;48.266;14.192;2023-12-04T10:27:02;1.58;54.28
75457;SHT31;64036;48.266;14.192;2023-12-04T10:29:49;1.53;54.78
75457;SHT31;64036;48.266;14.192;2023-12-04T10:32:20;1.33;54.78
75457;SHT31;64036;48.266;14.192;2023-12-04T10:34:46;1.09;55.24
75457;SHT31;64036;48.266;14.192;2023-12-04T10:37:13;0.82;56.10
75457;SHT31;64036;48.266;14.192;2023-12-04T10:39:47;0.70;56.72
75457;SHT31;64036;48.266;14.192;2023-12-04T10:42:25;0.78;57.10
75457;SHT31;64036;48.266;14.192;2023-12-04T10:44:55;0.86;56.86
75457;SHT31;64036;48.266;14.192;2023-12-04T10:47:22;0.90;56.94
75457;SHT31;64036;48.266;14.192;2023-12-04T10:49:52;1.00;57.00
75457;SHT31;64036;48.266;14.192;2023-12-04T10:52:18;1.03;56.97
75457;SHT31;64036;48.266;14.192;2023-12-04T10:54:48;1.13;57.12
75457;SHT31;64036;48.266;14.192;2023-12-04T10:57:16;1.16;56.78
75457;SHT31;64036;48.266;14.192;2023-12-04T10:59:55;1.00;57.15
75457;SHT31;64036;48.266;14.192;2023-12-04T11:02:25;0.93;57.36
75457;SHT31;64036;48.266;14.192;2023-12-04T11:04:54;0.75;57.47
75457;SHT31;64036;48.266;14.192;2023-12-04T11:07:27;0.50;57.76
75457;SHT31;64036;48.266;14.192;2023-12-04T11:09:56;0.37;58.62
75457;SHT31;64036;48.266;14.192;2023-12-04T11:12:25;0.26;58.46
75457;SHT31;64036;48.266;14.192;2023-12-04T11:14:56;0.09;58.90
75457;SHT31;64036;48.266;14.192;2023-12-04T11:17:25;-0.04;59.08
75457;SHT31;64036;48.266;14.192;2023-12-04T11:19:57;-0.06;59.80
75457;SHT31;64036;48.266;14.192;2023-12-04T11:22:31;-0.01;59.86
75457;SHT31;64036;48.266;14.192;2023-12-04T11:24:57;-0.09;59.96
75457;SHT31;64036;48.266;14.192;2023-12-04T11:27:23;-0.03;59.97
75457;SHT31;64036;48.266;14.192;2023-12-04T11:29:49;-0.03;59.97
75457;SHT31;64036;48.266;14.192;2023-12-04T11:32:16;0.13;60.21
75457;SHT31;64036;48.266;14.192;2023-12-04T11:34:55;0.28;59.78
75457;SHT31;64036;48.266;14.192;2023-12-04T11:37:28;0.11;58.52
75457;SHT31;64036;48.266;14.192;2023-12-04T11:39:56;-0.19;58.40
75457;SHT31;64036;48.266;14.192;2023-12-04T11:42:24;-0.34;58.75
75457;SHT31;64036;48.266;14.192;2023-12-04T11:44:57;-0.26;59.27
75457;SHT31;64036;48.266;14.192;2023-12-04T11:47:23;-0.24;58.83
75457;SHT31;64036;48.266;14.192;2023-12-04T11:49:49;-0.24;59.01
75457;SHT31;64036;48.266;14.192;2023-12-04T11:52:15;-0.19;59.08
75457;SHT31;64036;48.266;14.192;2023-12-04T11:57:39;-0.17;59.03
75457;SHT31;64036;48.266;14.192;2023-12-04T12:05:15;-0.11;59.30
75457;SHT31;64036;48.266;14.192;2023-12-04T12:07:41;-0.11;59.07
75457;SHT31;64036;48.266;14.192;2023-12-04T12:10:08;-0.10;59.20
75457;SHT31;64036;48.266;14.192;2023-12-04T12:12:36;-0.06;59.58
75457;SHT31;64036;48.266;14.192;2023-12-04T12:15:02;0.01;59.59
75457;SHT31;64036;48.266;14.192;2023-12-04T12:17:29;0.07;59.48
75457;SHT31;64036;48.266;14.192;2023-12-04T12:19:56;0.08;59.29
75457;SHT31;64036;48.266;14.192;2023-12-04T12:22:22;0.15;59.94
75457;SHT31;64036;48.266;14.192;2023-12-04T12:24:48;0.22;59.83
75457;SHT31;64036;48.266;14.192;2023-12-04T12:27:15;0.29;59.88
75457;SHT31;64036;48.266;14.192;2023-12-04T12:29:41;0.28;59.35
75457;SHT31;64036;48.266;14.192;2023-12-04T12:32:08;0.11;58.90
75457;SHT31;64036;48.266;14.192;2023-12-04T12:34:34;0.03;59.21
75457;SHT31;64036;48.266;14.192;2023-12-04T12:37:02;0.01;59.54
75457;SHT31;64036;48.266;14.192;2023-12-04T12:39:30;0.05;59.92
75457;SHT31;64036;48.266;14.192;2023-12-04T12:41:57;-0.04;59.18
75457;SHT31;64036;48.266;14.192;2023-12-04T12:44:23;-0.06;59.86
75457;SHT31;64036;48.266;14.192;2023-12-04T12:46:49;-0.08;59.72
75457;SHT31;64036;48.266;14.192;2023-12-04T12:49:17;-0.07;59.58
75457;SHT31;64036;48.266;14.192;2023-12-04T12:51:46;-0.10;59.56
75457;SHT31;64036;48.266;14.192;2023-12-04T12:54:12;-0.22;59.73
75457;SHT31;64036;48.266;14.192;2023-12-04T12:56:38;-0.27;60.07
75457;SHT31;64036;48.266;14.192;2023-12-04T12:59:04;-0.38;60.16
75457;SHT31;64036;48.266;14.192;2023-12-04T13:01:32;-0.37;60.56
75457;SHT31;64036;48.266;14.192;2023-12-04T13:03:58;-0.37;60.81
75457;SHT31;64036;48.266;14.192;2023-12-04T13:06:25;-0.47;60.39
75457;SHT31;64036;48.266;14.192;2023-12-04T13:08:52;-0.72;60.20
75457;SHT31;64036;48.266;14.192;2023-12-04T13:11:18;-0.89;60.79
75457;SHT31;64036;48.266;14.192;2023-12-04T13:13:46;-0.89;61.37
75457;SHT31;64036;48.266;14.192;2023-12-04T13:16:14;-0.87;61.76
75457;SHT31;64036;48.266;14.192;2023-12-04T13:18:58;-0.88;61.63
75457;SHT31;64036;48.266;14.192;2023-12-04T13:21:24;-0.94;61.69
75457;SHT31;64036;48.266;14.192;2023-12-04T13:24:01;-1.00;62.04
75457;SHT31;64036;48.266;14.192;2023-12-04T13:26:33;-1.05;62.36
75457;SHT31;64036;48.266;14.192;2023-12-04T13:29:18;-1.21;62.11
75457;SHT31;64036;48.266;14.192;2023-12-04T13:31:44;-1.36;62.61
75457;SHT31;64036;48.266;14.192;2023-12-04T13:34:15;-1.41;62.69
75457;SHT31;64036;48.266;14.192;2023-12-04T13:36:44;-1.46;63.16
75457;SHT31;64036;48.266;14.192;2023-12-04T13:39:18;-1.46;63.42
75457;SHT31;64036;48.266;14.192;2023-12-04T13:42:30;-1.48;63.49
75457;SHT31;64036;48.266;14.192;2023-12-04T13:45:29;-1.52;63.57
75457;SHT31;64036;48.266;14.192;2023-12-04T13:48:00;-1.50;63.76
75457;SHT31;64036;48.266;14.192;2023-12-04T13:50:32;-1.55;63.59
75457;SHT31;64036;48.266;14.192;2023-12-04T13:53:15;-1.67;63.52
75457;SHT31;64036;48.266;14.192;2023-12-04T13:55:57;-1.87;63.37
75457;SHT31;64036;48.266;14.192;2023-12-04T13:58:46;-2.05;64.00
75457;SHT31;64036;48.266;14.192;2023-12-04T14:01:20;-2.08;64.65
75457;SHT31;64036;48.266;14.192;2023-12-04T14:04:08;-2.16;64.58
75457;SHT31;64036;48.266;14.192;2023-12-04T14:06:53;-2.29;64.80
75457;SHT31;64036;48.266;14.192;2023-12-04T14:09:22;-2.34;65.08
75457;SHT31;64036;48.266;14.192;2023-12-04T14:11:59;-2.34;65.35
75457;SHT31;64036;48.266;14.192;2023-12-04T14:14:43;-2.34;65.44
75457;SHT31;64036;48.266;14.192;2023-12-04T14:17:15;-2.39;65.48
75457;SHT31;64036;48.266;14.192;2023-12-04T14:19:49;-2.41;65.57
75457;SHT31;64036;48.266;14.192;2023-12-04T14:22:25;-2.42;65.67
75457;SHT31;64036;48.266;14.192;2023-12-04T14:24:54;-2.43;65.65
75457;SHT31;64036;48.266;14.192;2023-12-04T14:27:20;-2.47;65.83
75457;SHT31;64036;48.266;14.192;2023-12-04T14:29:46;-2.48;65.86
75457;SHT31;64036;48.266;14.192;2023-12-04T14:32:11;-2.54;65.86
75457;SHT31;64036;48.266;14.192;2023-12-04T14:34:45;-2.61;65.97
75457;SHT31;64036;48.266;14.192;2023-12-04T14:37:11;-2.61;66.24
75457;SHT31;64036;48.266;14.192;2023-12-04T14:39:42;-2.62;66.15
75457;SHT31;64036;48.266;14.192;2023-12-04T14:42:10;-2.65;66.18
75457;SHT31;64036;48.266;14.192;2023-12-04T14:44:39;-2.70;66.55
75457;SHT31;64036;48.266;14.192;2023-12-04T14:47:05;-2.74;66.56
75457;SHT31;64036;48.266;14.192;2023-12-04T14:49:34;-2.82;66.46
75457;SHT31;64036;48.266;14.192;2023-12-04T14:52:03;-2.90;66.72
75457;SHT31;64036;48.266;14.192;2023-12-04T14:54:32;-2.95;66.97
75457;SHT31;64036;48.266;14.192;2023-12-04T14:57:21;-3.00;67.17
75457;SHT31;64036;48.266;14.192;2023-12-04T14:59:55;-3.03;67.42
75457;SHT31;64036;48.266;14.192;2023-12-04T15:02:43;-3.06;67.45
75457;SHT31;64036;48.266;14.192;2023-12-04T15:05:34;-3.09;67.57
75457;SHT31;64036;48.266;14.192;2023-12-04T15:08:37;-3.11;67.70
75457;SHT31;64036;48.266;14.192;2023-12-04T15:11:30;-3.16;67.65
75457;SHT31;64036;48.266;14.192;2023-12-04T15:14:25;-3.20;67.70
75457;SHT31;64036;48.266;14.192;2023-12-04T15:17:17;-3.22;67.84
75457;SHT31;64036;48.266;14.192;2023-12-04T15:20:09;-3.25;67.76
75457;SHT31;64036;48.266;14.192;2023-12-04T15:23:00;-3.33;67.51
75457;SHT31;64036;48.266;14.192;2023-12-04T15:28:50;-3.50;67.85
75457;SHT31;64036;48.266;14.192;2023-12-04T15:31:44;-3.54;67.99
75457;SHT31;64036;48.266;14.192;2023-12-04T15:34:20;-3.56;68.19
75457;SHT31;64036;48.266;14.192;2023-12-04T15:36:59;-3.59;68.22
75457;SHT31;64036;48.266;14.192;2023-12-04T15:39:40;-3.59;68.20
75457;SHT31;64036;48.266;14.192;2023-12-04T15:42:41;-3.61;68.20
75457;SHT31;64036;48.266;14.192;2023-12-04T15:45:27;-3.63;68.18
75457;SHT31;64036;48.266;14.192;2023-12-04T15:48:10;-3.65;68.20
75457;SHT31;64036;48.266;14.192;2023-12-04T15:51:10;-3.69;68.12
75457;SHT31;64036;48.266;14.192;2023-12-04T15:57:00;-3.78;68.22
75457;SHT31;64036;48.266;14.192;2023-12-04T15:59:45;-3.80;68.03
75457;SHT31;64036;48.266;14.192;2023-12-04T16:05:06;-3.91;67.79
75457;SHT31;64036;48.266;14.192;2023-12-04T16:07:35;-3.99;67.69
75457;SHT31;64036;48.266;14.192;2023-12-04T16:10:15;-4.08;67.68
75457;SHT31;64036;48.266;14.192;2023-12-04T16:12:59;-4.20;68.13
75457;SHT31;64036;48.266;14.192;2023-12-04T16:16:10;-4.24;68.77
75457;SHT31;64036;48.266;14.192;2023-12-04T16:19:06;-4.19;68.80
75457;SHT31;64036;48.266;14.192;2023-12-04T16:22:08;-4.20;68.58
75457;SHT31;64036;48.266;14.192;2023-12-04T16:25:11;-4.26;68.65
75457;SHT31;64036;48.266;14.192;2023-12-04T16:28:02;-4.28;68.59
75457;SHT31;64036;48.266;14.192;2023-12-04T16:31:09;-4.35;68.41
75457;SHT31;64036;48.266;14.192;2023-12-04T16:33:57;-4.45;68.50
75457;SHT31;64036;48.266;14.192;2023-12-04T16:40:02;-4.45;69.05
75457;SHT31;64036;48.266;14.192;2023-12-04T16:42:56;-4.48;69.09
75457;SHT31;64036;48.266;14.192;2023-12-04T16:45:31;-4.51;69.13
75457;SHT31;64036;48.266;14.192;2023-12-04T16:48:15;-4.63;69.10
75457;SHT31;64036;48.266;14.192;2023-12-04T16:54:41;-4.74;69.86
75457;SHT31;64036;48.266;14.192;2023-12-04T16:57:31;-4.74;69.63
75457;SHT31;64036;48.266;14.192;2023-12-04T17:06:11;-4.71;70.07
75457;SHT31;64036;48.266;14.192;2023-12-04T17:15:12;-4.78;70.11
75457;SHT31;64036;48.266;14.192;2023-12-04T17:18:24;-4.81;70.50
75457;SHT31;64036;48.266;14.192;2023-12-04T17:21:21;-4.80;70.57
75457;SHT31;64036;48.266;14.192;2023-12-04T17:24:27;-4.82;70.61
75457;SHT31;64036;48.266;14.192;2023-12-04T17:26:58;-4.86;70.59
75457;SHT31;64036;48.266;14.192;2023-12-04T17:32:56;-4.96;70.61
75457;SHT31;64036;48.266;14.192;2023-12-04T17:35:43;-5.14;69.54
75457;SHT31;64036;48.266;14.192;2023-12-04T17:38:35;-5.21;69.99
75457;SHT31;64036;48.266;14.192;2023-12-04T17:41:10;-5.21;70.25
75457;SHT31;64036;48.266;14.192;2023-12-04T17:43:39;-5.19;70.42
75457;SHT31;64036;48.266;14.192;2023-12-04T17:46:16;-5.15;70.59
75457;SHT31;64036;48.266;14.192;2023-12-04T17:48:45;-5.11;70.67
75457;SHT31;64036;48.266;14.192;2023-12-04T17:51:14;-5.11;70.53
75457;SHT31;64036;48.266;14.192;2023-12-04T17:53:50;-5.14;70.48
75457;SHT31;64036;48.266;14.192;2023-12-04T17:56:21;-5.14;70.89
75457;SHT31;64036;48.266;14.192;2023-12-04T17:58:58;-5.09;71.29
75457;SHT31;64036;48.266;14.192;2023-12-04T18:01:28;-5.01;71.52
75457;SHT31;64036;48.266;14.192;2023-12-04T18:04:14;-4.99;71.38
75457;SHT31;64036;48.266;14.192;2023-12-04T18:07:20;-5.08;71.05
75457;SHT31;64036;48.266;14.192;2023-12-04T18:09:55;-5.05;71.44
75457;SHT31;64036;48.266;14.192;2023-12-04T18:12:51;-4.97;71.85
75457;SHT31;64036;48.266;14.192;2023-12-04T18:15:22;-4.86;72.12
75457;SHT31;64036;48.266;14.192;2023-12-04T18:18:08;-4.78;72.26
75457;SHT31;64036;48.266;14.192;2023-12-04T18:20:49;-4.74;72.26
75457;SHT31;64036;48.266;14.192;2023-12-04T18:23:31;-4.66;72.43
75457;SHT31;64036;48.266;14.192;2023-12-04T18:26:13;-4.63;72.15
75457;SHT31;64036;48.266;14.192;2023-12-04T18:28:58;-4.62;72.18
75457;SHT31;64036;48.266;14.192;2023-12-04T18:31:49;-4.53;72.40
75457;SHT31;64036;48.266;14.192;2023-12-04T18:34:37;-4.47;72.39
75457;SHT31;64036;48.266;14.192;2023-12-04T18:37:27;-4.41;72.31
75457;SHT31;64036;48.266;14.192;2023-12-04T18:40:06;-4.38;72.19
75457;SHT31;64036;48.266;14.192;2023-12-04T18:42:35;-4.39;72.04
75457;SHT31;64036;48.266;14.192;2023-12-04T18:45:01;-4.40;72.03
75457;SHT31;64036;48.266;14.192;2023-12-04T18:48:05;-4.38;72.11
75457;SHT31;64036;48.266;14.192;2023-12-04T18:54:19;-4.36;71.84
75457;SHT31;64036;48.266;14.192;2023-12-04T19:01:10;-4.47;71.75
75457;SHT31;64036;48.266;14.192;2023-12-04T19:03:52;-4.45;71.79
75457;SHT31;64036;48.266;14.192;2023-12-04T19:06:40;-4.45;71.77
75457;SHT31;64036;48.266;14.192;2023-12-04T19:09:23;-4.51;71.47
75457;SHT31;64036;48.266;14.192;2023-12-04T19:12:16;-4.63;71.44
75457;SHT31;64036;48.266;14.192;2023-12-04T19:14:47;-4.72;71.66
75457;SHT31;64036;48.266;14.192;2023-12-04T19:17:27;-4.79;71.73
75457;SHT31;64036;48.266;14.192;2023-12-04T19:20:08;-4.82;71.85
75457;SHT31;64036;48.266;14.192;2023-12-04T19:22:37;-4.86;71.96
75457;SHT31;64036;48.266;14.192;2023-12-04T19:25:07;-5.02;71.24
75457;SHT31;64036;48.266;14.192;2023-12-04T19:27:43;-5.20;71.37
75457;SHT31;64036;48.266;14.192;2023-12-04T19:30:09;-5.25;71.62
75457;SHT31;64036;48.266;14.192;2023-12-04T19:32:51;-5.27;71.71
75457;SHT31;64036;48.266;14.192;2023-12-04T19:35:17;-5.30;71.80
75457;SHT31;64036;48.266;14.192;2023-12-04T19:37:51;-5.32;71.87
75457;SHT31;64036;48.266;14.192;2023-12-04T19:40:24;-5.39;71.41
75457;SHT31;64036;48.266;14.192;2023-12-04T19:42:50;-5.47;71.49
75457;SHT31;64036;48.266;14.192;2023-12-04T19:45:24;-5.50;71.72
75457;SHT31;64036;48.266;14.192;2023-12-04T19:47:51;-5.48;71.88
75457;SHT31;64036;48.266;14.192;2023-12-04T19:50:25;-5.45;71.94
75457;SHT31;64036;48.266;14.192;2023-12-04T19:53:02;-5.43;72.00
75457;SHT31;64036;48.266;14.192;2023-12-04T19:56:07;-5.42;72.02
75457;SHT31;64036;48.266;14.192;2023-12-04T19:58:57;-5.36;72.02
75457;SHT31;64036;48.266;14.192;2023-12-04T20:08:06;-5.43;71.69
75457;SHT31;64036;48.266;14.192;2023-12-04T20:10:58;-5.44;71.57
75457;SHT31;64036;48.266;14.192;2023-12-04T20:13:24;-5.44;71.68
75457;SHT31;64036;48.266;14.192;2023-12-04T20:15:53;-5.47;71.63
75457;SHT31;64036;48.266;14.192;2023-12-04T20:18:19;-5.47;71.70
75457;SHT31;64036;48.266;14.192;2023-12-04T20:20:54;-5.45;71.61
75457;SHT31;64036;48.266;14.192;2023-12-04T20:23:32;-5.50;71.71
75457;SHT31;64036;48.266;14.192;2023-12-04T20:26:03;-5.56;72.13